sensor_id;sensor_type;location;lat;lon;timestamp;temperature;humidity
66119;DHT22;52912;48.564;9.302;2022-08-19T00:00:49;19.19;91.48
66119;DHT22;52912;48.564;9.302;2022-08-19T00:03:15;19.02;91.44
66119;DHT22;52912;48.564;9.302;2022-08-19T00:05:40;19.23;90.48
66119;DHT22;52912;48.564;9.302;2022-08-19T00:08:06;19.09;91.53
66119;DHT22;52912;48.564;9.302;2022-08-19T00:10:32;18.94;91.80
66119;DHT22;52912;48.564;9.302;2022-08-19T00:12:57;18.94;91.77
66119;DHT22;52912;48.564;9.302;2022-08-19T00:15:24;18.96;91.86
66119;DHT22;52912;48.564;9.302;2022-08-19T00:17:50;19.02;92.02
66119;DHT22;52912;48.564;9.302;2022-08-19T00:20:18;19.03;91.81
66119;DHT22;52912;48.564;9.302;2022-08-19T00:22:45;19.10;91.53
66119;DHT22;52912;48.564;9.302;2022-08-19T00:25:11;19.08;91.69
66119;DHT22;52912;48.564;9.302;2022-08-19T00:27:37;19.02;91.86
66119;DHT22;52912;48.564;9.302;2022-08-19T00:30:04;19.02;91.88
66119;DHT22;52912;48.564;9.302;2022-08-19T00:32:31;18.94;91.25
66119;DHT22;52912;48.564;9.302;2022-08-19T00:34:57;18.98;91.71
66119;DHT22;52912;48.564;9.302;2022-08-19T00:37:23;18.96;91.46
66119;DHT22;52912;48.564;9.302;2022-08-19T00:39:49;19.08;91.69
66119;DHT22;52912;48.564;9.302;2022-08-19T00:42:15;18.79;92.00
66119;DHT22;52912;48.564;9.302;2022-08-19T00:44:40;18.76;92.34
66119;DHT22;52912;48.564;9.302;2022-08-19T00:47:06;18.71;92.43
66119;DHT22;52912;48.564;9.302;2022-08-19T00:49:37;18.76;91.60
66119;DHT22;52912;48.564;9.302;2022-08-19T00:52:08;18.65;92.68
66119;DHT22;52912;48.564;9.302;2022-08-19T00:54:35;18.51;92.97
66119;DHT22;52912;48.564;9.302;2022-08-19T00:57:03;18.60;93.01
66119;DHT22;52912;48.564;9.302;2022-08-19T00:59:30;18.68;92.82
66119;DHT22;52912;48.564;9.302;2022-08-19T01:01:56;18.71;92.39
66119;DHT22;52912;48.564;9.302;2022-08-19T01:04:21;18.87;91.70
66119;DHT22;52912;48.564;9.302;2022-08-19T01:06:48;18.72;92.10
66119;DHT22;52912;48.564;9.302;2022-08-19T01:09:14;18.60;92.94
66119;DHT22;52912;48.564;9.302;2022-08-19T01:11:42;18.71;92.74
66119;DHT22;52912;48.564;9.302;2022-08-19T01:14:09;18.69;92.88
66119;DHT22;52912;48.564;9.302;2022-08-19T01:16:37;18.65;92.72
66119;DHT22;52912;48.564;9.302;2022-08-19T01:19:09;18.81;92.69
66119;DHT22;52912;48.564;9.302;2022-08-19T01:21:42;18.78;92.32
66119;DHT22;52912;48.564;9.302;2022-08-19T01:24:10;18.88;92.65
66119;DHT22;52912;48.564;9.302;2022-08-19T01:26:40;18.71;92.67
66119;DHT22;52912;48.564;9.302;2022-08-19T01:29:07;18.85;93.04
66119;DHT22;52912;48.564;9.302;2022-08-19T01:31:32;18.87;92.41
66119;DHT22;52912;48.564;9.302;2022-08-19T01:33:58;18.81;93.09
66119;DHT22;52912;48.564;9.302;2022-08-19T01:36:27;18.81;92.91
66119;DHT22;52912;48.564;9.302;2022-08-19T01:38:53;18.84;93.12
66119;DHT22;52912;48.564;9.302;2022-08-19T01:41:20;18.81;92.66
66119;DHT22;52912;48.564;9.302;2022-08-19T01:43:45;18.81;92.64
66119;DHT22;52912;48.564;9.302;2022-08-19T01:46:11;18.75;92.84
66119;DHT22;52912;48.564;9.302;2022-08-19T01:48:41;18.63;92.93
66119;DHT22;52912;48.564;9.302;2022-08-19T01:51:08;18.72;92.95
66119;DHT22;52912;48.564;9.302;2022-08-19T01:53:34;18.68;92.69
66119;DHT22;52912;48.564;9.302;2022-08-19T01:56:00;18.63;92.83
66119;DHT22;52912;48.564;9.302;2022-08-19T01:58:31;18.64;92.73
66119;DHT22;52912;48.564;9.302;2022-08-19T02:00:58;18.76;92.29
66119;DHT22;52912;48.564;9.302;2022-08-19T02:03:24;18.82;92.62
66119;DHT22;52912;48.564;9.302;2022-08-19T02:05:54;18.76;92.77
66119;DHT22;52912;48.564;9.302;2022-08-19T02:08:20;18.65;93.04
66119;DHT22;52912;48.564;9.302;2022-08-19T02:10:45;18.61;93.47
66119;DHT22;52912;48.564;9.302;2022-08-19T02:13:12;18.74;92.97
66119;DHT22;52912;48.564;9.302;2022-08-19T02:15:40;18.74;92.66
66119;DHT22;52912;48.564;9.302;2022-08-19T02:18:05;18.64;92.85
66119;DHT22;52912;48.564;9.302;2022-08-19T02:20:31;18.54;93.46
66119;DHT22;52912;48.564;9.302;2022-08-19T02:22:57;18.47;93.24
66119;DHT22;52912;48.564;9.302;2022-08-19T02:25:22;18.61;92.91
66119;DHT22;52912;48.564;9.302;2022-08-19T02:27:48;18.48;92.95
66119;DHT22;52912;48.564;9.302;2022-08-19T02:30:15;18.40;93.37
66119;DHT22;52912;48.564;9.302;2022-08-19T02:32:43;18.54;93.04
66119;DHT22;52912;48.564;9.302;2022-08-19T02:35:09;18.65;92.60
66119;DHT22;52912;48.564;9.302;2022-08-19T02:37:35;18.64;92.80
66119;DHT22;52912;48.564;9.302;2022-08-19T02:40:00;18.57;92.52
66119;DHT22;52912;48.564;9.302;2022-08-19T02:42:26;18.63;92.40
66119;DHT22;52912;48.564;9.302;2022-08-19T02:44:52;18.58;92.66
66119;DHT22;52912;48.564;9.302;2022-08-19T02:47:17;18.54;93.19
66119;DHT22;52912;48.564;9.302;2022-08-19T02:49:44;18.65;92.31
66119;DHT22;52912;48.564;9.302;2022-08-19T02:52:10;18.67;92.63
66119;DHT22;52912;48.564;9.302;2022-08-19T02:54:36;18.61;92.82
66119;DHT22;52912;48.564;9.302;2022-08-19T02:57:02;18.61;92.83
66119;DHT22;52912;48.564;9.302;2022-08-19T02:59:29;18.40;93.28
66119;DHT22;52912;48.564;9.302;2022-08-19T03:01:55;18.26;93.98
66119;DHT22;52912;48.564;9.302;2022-08-19T03:04:20;18.29;93.66
66119;DHT22;52912;48.564;9.302;2022-08-19T03:06:48;18.33;93.53
66119;DHT22;52912;48.564;9.302;2022-08-19T03:09:14;18.33;93.20
66119;DHT22;52912;48.564;9.302;2022-08-19T03:11:40;18.32;93.19
66119;DHT22;52912;48.564;9.302;2022-08-19T03:14:08;18.48;92.75
66119;DHT22;52912;48.564;9.302;2022-08-19T03:16:36;18.33;93.24
66119;DHT22;52912;48.564;9.302;2022-08-19T03:19:04;18.41;92.74
66119;DHT22;52912;48.564;9.302;2022-08-19T03:21:31;18.40;93.05
66119;DHT22;52912;48.564;9.302;2022-08-19T03:24:00;18.32;93.30
66119;DHT22;52912;48.564;9.302;2022-08-19T03:26:27;18.39;93.25
66119;DHT22;52912;48.564;9.302;2022-08-19T03:28:53;18.46;93.14
66119;DHT22;52912;48.564;9.302;2022-08-19T03:31:21;18.48;93.15
66119;DHT22;52912;48.564;9.302;2022-08-19T03:33:47;18.56;92.82
66119;DHT22;52912;48.564;9.302;2022-08-19T03:36:15;18.57;92.67
66119;DHT22;52912;48.564;9.302;2022-08-19T03:38:43;18.63;92.79
66119;DHT22;52912;48.564;9.302;2022-08-19T03:41:12;18.54;92.72
66119;DHT22;52912;48.564;9.302;2022-08-19T03:43:39;18.47;93.13
66119;DHT22;52912;48.564;9.302;2022-08-19T03:46:07;18.50;92.53
66119;DHT22;52912;48.564;9.302;2022-08-19T03:48:33;18.48;93.68
66119;DHT22;52912;48.564;9.302;2022-08-19T03:50:59;18.46;93.04
66119;DHT22;52912;48.564;9.302;2022-08-19T03:53:25;18.44;93.82
66119;DHT22;52912;48.564;9.302;2022-08-19T03:55:51;18.46;93.30
66119;DHT22;52912;48.564;9.302;2022-08-19T03:58:18;18.53;93.04
66119;DHT22;52912;48.564;9.302;2022-08-19T04:00:44;18.53;93.43
66119;DHT22;52912;48.564;9.302;2022-08-19T04:03:09;18.51;93.12
66119;DHT22;52912;48.564;9.302;2022-08-19T04:05:35;18.40;93.75
66119;DHT22;52912;48.564;9.302;2022-08-19T04:08:00;18.32;93.49
66119;DHT22;52912;48.564;9.302;2022-08-19T04:10:26;18.41;93.88
66119;DHT22;52912;48.564;9.302;2022-08-19T04:12:51;18.50;93.37
66119;DHT22;52912;48.564;9.302;2022-08-19T04:15:18;18.47;93.25
66119;DHT22;52912;48.564;9.302;2022-08-19T04:17:44;18.43;93.14
66119;DHT22;52912;48.564;9.302;2022-08-19T04:20:10;18.36;93.08
66119;DHT22;52912;48.564;9.302;2022-08-19T04:22:36;18.43;93.02
66119;DHT22;52912;48.564;9.302;2022-08-19T04:25:01;18.37;93.60
66119;DHT22;52912;48.564;9.302;2022-08-19T04:27:27;18.40;93.53
66119;DHT22;52912;48.564;9.302;2022-08-19T04:29:52;18.40;93.38
66119;DHT22;52912;48.564;9.302;2022-08-19T04:32:19;18.40;93.40
66119;DHT22;52912;48.564;9.302;2022-08-19T04:34:45;18.16;94.08
66119;DHT22;52912;48.564;9.302;2022-08-19T04:37:10;18.25;93.88
66119;DHT22;52912;48.564;9.302;2022-08-19T04:39:36;18.34;93.61
66119;DHT22;52912;48.564;9.302;2022-08-19T04:42:01;18.25;93.90
66119;DHT22;52912;48.564;9.302;2022-08-19T04:44:27;18.30;93.51
66119;DHT22;52912;48.564;9.302;2022-08-19T04:46:53;18.26;93.63
66119;DHT22;52912;48.564;9.302;2022-08-19T04:49:22;18.17;93.77
66119;DHT22;52912;48.564;9.302;2022-08-19T04:51:47;18.19;93.92
66119;DHT22;52912;48.564;9.302;2022-08-19T04:54:15;18.23;93.75
66119;DHT22;52912;48.564;9.302;2022-08-19T04:56:41;18.26;93.73
66119;DHT22;52912;48.564;9.302;2022-08-19T04:59:07;18.36;93.45
66119;DHT22;52912;48.564;9.302;2022-08-19T05:01:33;18.46;93.29
66119;DHT22;52912;48.564;9.302;2022-08-19T05:03:59;18.44;93.29
66119;DHT22;52912;48.564;9.302;2022-08-19T05:06:26;18.30;93.37
66119;DHT22;52912;48.564;9.302;2022-08-19T05:08:51;18.25;93.67
66119;DHT22;52912;48.564;9.302;2022-08-19T05:11:19;18.34;93.59
66119;DHT22;52912;48.564;9.302;2022-08-19T05:13:44;18.34;93.70
66119;DHT22;52912;48.564;9.302;2022-08-19T05:16:12;18.39;93.43
66119;DHT22;52912;48.564;9.302;2022-08-19T05:18:38;18.43;93.44
66119;DHT22;52912;48.564;9.302;2022-08-19T05:21:06;18.36;93.25
66119;DHT22;52912;48.564;9.302;2022-08-19T05:23:33;18.47;93.15
66119;DHT22;52912;48.564;9.302;2022-08-19T05:25:58;18.43;93.39
66119;DHT22;52912;48.564;9.302;2022-08-19T05:28:24;18.40;93.53
66119;DHT22;52912;48.564;9.302;2022-08-19T05:30:49;18.33;93.66
66119;DHT22;52912;48.564;9.302;2022-08-19T05:33:15;18.34;93.52
66119;DHT22;52912;48.564;9.302;2022-08-19T05:35:40;18.37;93.72
66119;DHT22;52912;48.564;9.302;2022-08-19T05:38:07;18.43;93.83
66119;DHT22;52912;48.564;9.302;2022-08-19T05:40:35;18.54;93.35
66119;DHT22;52912;48.564;9.302;2022-08-19T05:43:00;18.60;92.79
66119;DHT22;52912;48.564;9.302;2022-08-19T05:45:26;18.60;92.87
66119;DHT22;52912;48.564;9.302;2022-08-19T05:47:51;18.56;92.96
66119;DHT22;52912;48.564;9.302;2022-08-19T05:50:17;18.57;93.12
66119;DHT22;52912;48.564;9.302;2022-08-19T05:52:43;18.60;93.38
66119;DHT22;52912;48.564;9.302;2022-08-19T05:55:08;18.61;93.27
66119;DHT22;52912;48.564;9.302;2022-08-19T05:57:35;18.64;93.19
66119;DHT22;52912;48.564;9.302;2022-08-19T06:00:01;18.69;92.91
66119;DHT22;52912;48.564;9.302;2022-08-19T06:02:29;18.61;92.78
66119;DHT22;52912;48.564;9.302;2022-08-19T06:04:54;18.64;93.71
66119;DHT22;52912;48.564;9.302;2022-08-19T06:07:20;18.69;93.34
66119;DHT22;52912;48.564;9.302;2022-08-19T06:09:45;18.64;94.28
66119;DHT22;52912;48.564;9.302;2022-08-19T06:12:11;18.71;93.54
66119;DHT22;52912;48.564;9.302;2022-08-19T06:14:38;18.67;93.84
66119;DHT22;52912;48.564;9.302;2022-08-19T06:17:04;18.64;93.16
66119;DHT22;52912;48.564;9.302;2022-08-19T06:19:30;18.61;92.81
66119;DHT22;52912;48.564;9.302;2022-08-19T06:21:57;18.68;93.14
66119;DHT22;52912;48.564;9.302;2022-08-19T06:24:24;18.68;93.09
66119;DHT22;52912;48.564;9.302;2022-08-19T06:26:52;18.72;93.34
66119;DHT22;52912;48.564;9.302;2022-08-19T06:29:20;18.82;93.00
66119;DHT22;52912;48.564;9.302;2022-08-19T06:31:49;18.75;93.24
66119;DHT22;52912;48.564;9.302;2022-08-19T06:34:15;18.79;93.16
66119;DHT22;52912;48.564;9.302;2022-08-19T06:36:42;18.81;93.40
66119;DHT22;52912;48.564;9.302;2022-08-19T06:39:11;18.76;93.20
66119;DHT22;52912;48.564;9.302;2022-08-19T06:41:38;18.72;93.42
66119;DHT22;52912;48.564;9.302;2022-08-19T06:44:05;18.79;94.22
66119;DHT22;52912;48.564;9.302;2022-08-19T06:46:30;18.71;92.93
66119;DHT22;52912;48.564;9.302;2022-08-19T06:48:58;18.78;92.81
66119;DHT22;52912;48.564;9.302;2022-08-19T06:51:24;18.85;92.70
66119;DHT22;52912;48.564;9.302;2022-08-19T06:53:51;18.72;92.49
66119;DHT22;52912;48.564;9.302;2022-08-19T06:56:20;18.79;92.64
66119;DHT22;52912;48.564;9.302;2022-08-19T06:58:45;18.78;92.68
66119;DHT22;52912;48.564;9.302;2022-08-19T07:01:11;18.75;92.99
66119;DHT22;52912;48.564;9.302;2022-08-19T07:03:38;18.79;92.76
66119;DHT22;52912;48.564;9.302;2022-08-19T07:06:06;18.68;93.10
66119;DHT22;52912;48.564;9.302;2022-08-19T07:08:32;18.61;92.89
66119;DHT22;52912;48.564;9.302;2022-08-19T07:10:58;18.69;92.97
66119;DHT22;52912;48.564;9.302;2022-08-19T07:13:24;18.67;93.26
66119;DHT22;52912;48.564;9.302;2022-08-19T07:15:50;18.74;92.88
66119;DHT22;52912;48.564;9.302;2022-08-19T07:18:16;18.54;93.77
66119;DHT22;52912;48.564;9.302;2022-08-19T07:20:42;18.74;93.22
66119;DHT22;52912;48.564;9.302;2022-08-19T07:23:09;18.72;93.07
66119;DHT22;52912;48.564;9.302;2022-08-19T07:25:36;18.71;93.28
66119;DHT22;52912;48.564;9.302;2022-08-19T07:28:02;18.69;92.80
66119;DHT22;52912;48.564;9.302;2022-08-19T07:30:28;18.74;94.21
66119;DHT22;52912;48.564;9.302;2022-08-19T07:32:53;18.61;92.90
66119;DHT22;52912;48.564;9.302;2022-08-19T07:35:19;18.64;93.34
66119;DHT22;52912;48.564;9.302;2022-08-19T07:37:45;18.74;92.69
66119;DHT22;52912;48.564;9.302;2022-08-19T07:40:12;18.68;92.79
66119;DHT22;52912;48.564;9.302;2022-08-19T07:42:38;18.69;92.76
66119;DHT22;52912;48.564;9.302;2022-08-19T07:45:04;18.78;92.53
66119;DHT22;52912;48.564;9.302;2022-08-19T07:47:30;18.64;93.06
66119;DHT22;52912;48.564;9.302;2022-08-19T07:49:56;18.68;93.06
66119;DHT22;52912;48.564;9.302;2022-08-19T07:52:22;18.69;92.91
66119;DHT22;52912;48.564;9.302;2022-08-19T07:54:48;18.65;92.35
66119;DHT22;52912;48.564;9.302;2022-08-19T07:57:16;18.69;92.55
66119;DHT22;52912;48.564;9.302;2022-08-19T07:59:41;18.67;93.11
66119;DHT22;52912;48.564;9.302;2022-08-19T08:02:08;18.71;93.09
66119;DHT22;52912;48.564;9.302;2022-08-19T08:04:33;18.75;93.07
66119;DHT22;52912;48.564;9.302;2022-08-19T08:06:59;18.78;93.51
66119;DHT22;52912;48.564;9.302;2022-08-19T08:09:27;18.79;93.91
66119;DHT22;52912;48.564;9.302;2022-08-19T08:11:57;18.81;93.95
66119;DHT22;52912;48.564;9.302;2022-08-19T08:14:27;18.84;93.23
66119;DHT22;52912;48.564;9.302;2022-08-19T08:16:53;18.84;93.90
66119;DHT22;52912;48.564;9.302;2022-08-19T08:19:21;18.84;93.62
66119;DHT22;52912;48.564;9.302;2022-08-19T08:21:48;18.94;93.84
66119;DHT22;52912;48.564;9.302;2022-08-19T08:24:15;18.88;93.24
66119;DHT22;52912;48.564;9.302;2022-08-19T08:26:41;18.79;93.04
66119;DHT22;52912;48.564;9.302;2022-08-19T08:29:07;18.91;93.57
66119;DHT22;52912;48.564;9.302;2022-08-19T08:31:34;18.84;93.09
66119;DHT22;52912;48.564;9.302;2022-08-19T08:34:00;18.85;93.26
66119;DHT22;52912;48.564;9.302;2022-08-19T08:36:26;18.69;92.55
66119;DHT22;52912;48.564;9.302;2022-08-19T08:38:51;18.63;93.40
66119;DHT22;52912;48.564;9.302;2022-08-19T08:41:22;18.75;93.20
66119;DHT22;52912;48.564;9.302;2022-08-19T08:43:51;18.54;93.65
66119;DHT22;52912;48.564;9.302;2022-08-19T08:46:19;18.58;93.45
66119;DHT22;52912;48.564;9.302;2022-08-19T08:48:51;18.41;94.12
66119;DHT22;52912;48.564;9.302;2022-08-19T08:51:22;18.43;94.54
66119;DHT22;52912;48.564;9.302;2022-08-19T08:53:50;18.30;95.61
66119;DHT22;52912;48.564;9.302;2022-08-19T08:56:17;18.41;95.52
66119;DHT22;52912;48.564;9.302;2022-08-19T08:58:51;18.37;94.78
66119;DHT22;52912;48.564;9.302;2022-08-19T09:01:20;18.37;94.77
66119;DHT22;52912;48.564;9.302;2022-08-19T09:03:47;18.41;94.79
66119;DHT22;52912;48.564;9.302;2022-08-19T09:06:18;18.51;94.25
66119;DHT22;52912;48.564;9.302;2022-08-19T09:08:54;18.50;93.86
66119;DHT22;52912;48.564;9.302;2022-08-19T09:11:36;18.46;94.19
66119;DHT22;52912;48.564;9.302;2022-08-19T09:14:10;18.53;94.62
66119;DHT22;52912;48.564;9.302;2022-08-19T09:16:37;18.57;94.62
66119;DHT22;52912;48.564;9.302;2022-08-19T09:19:06;18.67;93.78
66119;DHT22;52912;48.564;9.302;2022-08-19T09:21:32;18.58;94.32
66119;DHT22;52912;48.564;9.302;2022-08-19T09:23:58;18.58;94.50
66119;DHT22;52912;48.564;9.302;2022-08-19T09:26:24;18.51;94.34
66119;DHT22;52912;48.564;9.302;2022-08-19T09:28:52;18.53;94.92
66119;DHT22;52912;48.564;9.302;2022-08-19T09:31:19;18.48;94.35
66119;DHT22;52912;48.564;9.302;2022-08-19T09:33:46;18.53;95.18
66119;DHT22;52912;48.564;9.302;2022-08-19T09:36:15;18.57;94.52
66119;DHT22;52912;48.564;9.302;2022-08-19T09:38:41;18.67;94.23
66119;DHT22;52912;48.564;9.302;2022-08-19T09:41:08;18.64;94.08
66119;DHT22;52912;48.564;9.302;2022-08-19T09:43:34;18.72;94.87
66119;DHT22;52912;48.564;9.302;2022-08-19T09:46:00;18.64;94.35
66119;DHT22;52912;48.564;9.302;2022-08-19T09:48:26;18.69;94.31
66119;DHT22;52912;48.564;9.302;2022-08-19T09:50:51;18.65;94.30
66119;DHT22;52912;48.564;9.302;2022-08-19T09:53:18;18.69;94.62
66119;DHT22;52912;48.564;9.302;2022-08-19T09:55:44;18.82;94.60
66119;DHT22;52912;48.564;9.302;2022-08-19T09:58:10;18.81;94.55
66119;DHT22;52912;48.564;9.302;2022-08-19T10:00:37;18.87;94.50
66119;DHT22;52912;48.564;9.302;2022-08-19T10:03:03;18.91;93.80
66119;DHT22;52912;48.564;9.302;2022-08-19T10:05:28;18.75;93.85
66119;DHT22;52912;48.564;9.302;2022-08-19T10:07:54;18.84;93.60
66119;DHT22;52912;48.564;9.302;2022-08-19T10:10:21;18.81;93.77
66119;DHT22;52912;48.564;9.302;2022-08-19T10:12:46;18.76;94.33
66119;DHT22;52912;48.564;9.302;2022-08-19T10:15:12;18.89;94.38
66119;DHT22;52912;48.564;9.302;2022-08-19T10:17:37;18.95;94.02
66119;DHT22;52912;48.564;9.302;2022-08-19T10:20:04;18.96;93.15
66119;DHT22;52912;48.564;9.302;2022-08-19T10:22:30;19.01;94.06
66119;DHT22;52912;48.564;9.302;2022-08-19T10:24:56;18.89;94.64
66119;DHT22;52912;48.564;9.302;2022-08-19T10:27:23;18.88;93.29
66119;DHT22;52912;48.564;9.302;2022-08-19T10:29:48;18.88;93.82
66119;DHT22;52912;48.564;9.302;2022-08-19T10:32:14;18.88;94.80
66119;DHT22;52912;48.564;9.302;2022-08-19T10:34:40;18.87;94.22
66119;DHT22;52912;48.564;9.302;2022-08-19T10:37:06;18.89;94.72
66119;DHT22;52912;48.564;9.302;2022-08-19T10:39:33;18.91;93.71
66119;DHT22;52912;48.564;9.302;2022-08-19T10:41:58;18.84;93.85
66119;DHT22;52912;48.564;9.302;2022-08-19T10:44:25;18.63;94.12
66119;DHT22;52912;48.564;9.302;2022-08-19T10:46:51;18.57;94.17
66119;DHT22;52912;48.564;9.302;2022-08-19T10:49:17;18.75;94.01
66119;DHT22;52912;48.564;9.302;2022-08-19T10:51:42;18.88;93.46
66119;DHT22;52912;48.564;9.302;2022-08-19T10:54:08;18.67;94.66
66119;DHT22;52912;48.564;9.302;2022-08-19T10:56:34;18.71;94.09
66119;DHT22;52912;48.564;9.302;2022-08-19T10:58:59;18.71;93.95
66119;DHT22;52912;48.564;9.302;2022-08-19T11:01:27;18.74;94.19
66119;DHT22;52912;48.564;9.302;2022-08-19T11:03:52;18.53;94.85
66119;DHT22;52912;48.564;9.302;2022-08-19T11:06:18;18.46;95.26
66119;DHT22;52912;48.564;9.302;2022-08-19T11:08:44;18.41;94.85
66119;DHT22;52912;48.564;9.302;2022-08-19T11:11:10;18.40;95.06
66119;DHT22;52912;48.564;9.302;2022-08-19T11:13:38;18.41;95.31
66119;DHT22;52912;48.564;9.302;2022-08-19T11:16:05;18.37;95.16
66119;DHT22;52912;48.564;9.302;2022-08-19T11:18:34;18.36;95.46
66119;DHT22;52912;48.564;9.302;2022-08-19T11:21:06;18.41;95.57
66119;DHT22;52912;48.564;9.302;2022-08-19T11:23:31;18.53;95.50
66119;DHT22;52912;48.564;9.302;2022-08-19T11:25:57;18.46;95.40
66119;DHT22;52912;48.564;9.302;2022-08-19T11:28:22;18.28;94.71
66119;DHT22;52912;48.564;9.302;2022-08-19T11:30:48;18.43;94.44
66119;DHT22;52912;48.564;9.302;2022-08-19T11:33:13;18.37;94.88
66119;DHT22;52912;48.564;9.302;2022-08-19T11:35:40;18.46;94.91
66119;DHT22;52912;48.564;9.302;2022-08-19T11:38:06;18.41;94.99
66119;DHT22;52912;48.564;9.302;2022-08-19T11:40:32;18.48;94.74
66119;DHT22;52912;48.564;9.302;2022-08-19T11:42:57;18.40;94.56
66119;DHT22;52912;48.564;9.302;2022-08-19T11:45:23;18.41;94.65
66119;DHT22;52912;48.564;9.302;2022-08-19T11:47:48;18.60;94.71
66119;DHT22;52912;48.564;9.302;2022-08-19T11:50:14;18.57;94.48
66119;DHT22;52912;48.564;9.302;2022-08-19T11:52:42;18.65;94.35
66119;DHT22;52912;48.564;9.302;2022-08-19T11:55:09;18.50;94.50
66119;DHT22;52912;48.564;9.302;2022-08-19T12:00:35;18.36;95.46
66119;DHT22;52912;48.564;9.302;2022-08-19T12:03:00;18.43;95.40
66119;DHT22;52912;48.564;9.302;2022-08-19T12:05:26;18.37;95.37
66119;DHT22;52912;48.564;9.302;2022-08-19T12:08:05;18.33;95.94
66119;DHT22;52912;48.564;9.302;2022-08-19T12:10:31;18.23;95.46
66119;DHT22;52912;48.564;9.302;2022-08-19T12:12:56;18.13;95.85
66119;DHT22;52912;48.564;9.302;2022-08-19T12:15:22;18.12;96.12
66119;DHT22;52912;48.564;9.302;2022-08-19T12:17:48;18.12;95.88
66119;DHT22;52912;48.564;9.302;2022-08-19T12:20:14;18.09;96.47
66119;DHT22;52912;48.564;9.302;2022-08-19T12:22:39;18.13;96.29
66119;DHT22;52912;48.564;9.302;2022-08-19T12:25:10;18.14;95.91
66119;DHT22;52912;48.564;9.302;2022-08-19T12:27:36;18.30;95.95
66119;DHT22;52912;48.564;9.302;2022-08-19T12:30:02;18.32;95.87
66119;DHT22;52912;48.564;9.302;2022-08-19T12:32:32;18.32;95.72
66119;DHT22;52912;48.564;9.302;2022-08-19T12:34:58;18.29;96.19
66119;DHT22;52912;48.564;9.302;2022-08-19T12:37:24;18.32;95.82
66119;DHT22;52912;48.564;9.302;2022-08-19T12:39:49;18.37;96.14
66119;DHT22;52912;48.564;9.302;2022-08-19T12:42:16;18.37;95.93
66119;DHT22;52912;48.564;9.302;2022-08-19T12:44:42;18.30;95.86
66119;DHT22;52912;48.564;9.302;2022-08-19T12:47:10;18.34;95.84
66119;DHT22;52912;48.564;9.302;2022-08-19T12:49:36;18.47;94.95
66119;DHT22;52912;48.564;9.302;2022-08-19T12:52:03;18.37;94.84
66119;DHT22;52912;48.564;9.302;2022-08-19T12:54:29;18.46;95.62
66119;DHT22;52912;48.564;9.302;2022-08-19T12:56:55;18.58;94.80
66119;DHT22;52912;48.564;9.302;2022-08-19T12:59:21;18.56;94.62
66119;DHT22;52912;48.564;9.302;2022-08-19T13:01:47;18.50;95.17
66119;DHT22;52912;48.564;9.302;2022-08-19T13:04:13;18.61;94.29
66119;DHT22;52912;48.564;9.302;2022-08-19T13:06:38;18.71;94.29
66119;DHT22;52912;48.564;9.302;2022-08-19T13:09:04;18.65;94.27
66119;DHT22;52912;48.564;9.302;2022-08-19T13:11:30;18.51;95.10
66119;DHT22;52912;48.564;9.302;2022-08-19T13:13:55;18.54;95.03
66119;DHT22;52912;48.564;9.302;2022-08-19T13:16:22;18.67;94.09
66119;DHT22;52912;48.564;9.302;2022-08-19T13:18:48;18.76;94.01
66119;DHT22;52912;48.564;9.302;2022-08-19T13:21:14;18.78;93.86
66119;DHT22;52912;48.564;9.302;2022-08-19T13:23:41;18.72;94.20
66119;DHT22;52912;48.564;9.302;2022-08-19T13:26:08;18.79;93.70
66119;DHT22;52912;48.564;9.302;2022-08-19T13:28:34;18.74;94.79
66119;DHT22;52912;48.564;9.302;2022-08-19T13:31:00;18.89;93.97
66119;DHT22;52912;48.564;9.302;2022-08-19T13:33:27;18.89;93.39
66119;DHT22;52912;48.564;9.302;2022-08-19T13:35:57;18.78;93.63
66119;DHT22;52912;48.564;9.302;2022-08-19T13:38:23;18.81;93.87
66119;DHT22;52912;48.564;9.302;2022-08-19T13:40:50;18.87;94.05
66119;DHT22;52912;48.564;9.302;2022-08-19T13:43:16;18.82;93.85
66119;DHT22;52912;48.564;9.302;2022-08-19T13:45:42;18.89;93.15
66119;DHT22;52912;48.564;9.302;2022-08-19T13:48:08;18.98;93.68
66119;DHT22;52912;48.564;9.302;2022-08-19T13:50:38;19.02;92.92
66119;DHT22;52912;48.564;9.302;2022-08-19T13:53:04;18.74;93.80
66119;DHT22;52912;48.564;9.302;2022-08-19T13:55:30;18.85;92.82
66119;DHT22;52912;48.564;9.302;2022-08-19T13:57:58;18.92;92.48
66119;DHT22;52912;48.564;9.302;2022-08-19T14:00:25;18.98;93.15
66119;DHT22;52912;48.564;9.302;2022-08-19T14:02:52;18.94;93.54
66119;DHT22;52912;48.564;9.302;2022-08-19T14:05:19;18.96;92.92
66119;DHT22;52912;48.564;9.302;2022-08-19T14:07:46;18.88;93.56
66119;DHT22;52912;48.564;9.302;2022-08-19T14:10:12;18.81;93.46
66119;DHT22;52912;48.564;9.302;2022-08-19T14:12:39;18.88;92.80
66119;DHT22;52912;48.564;9.302;2022-08-19T14:15:06;18.92;92.98
66119;DHT22;52912;48.564;9.302;2022-08-19T14:17:32;18.91;93.56
66119;DHT22;52912;48.564;9.302;2022-08-19T14:19:58;18.81;93.04
66119;DHT22;52912;48.564;9.302;2022-08-19T14:22:23;18.92;92.93
66119;DHT22;52912;48.564;9.302;2022-08-19T14:24:50;18.99;92.37
66119;DHT22;52912;48.564;9.302;2022-08-19T14:27:16;18.94;92.97
66119;DHT22;52912;48.564;9.302;2022-08-19T14:29:41;18.89;93.15
66119;DHT22;52912;48.564;9.302;2022-08-19T14:32:07;18.82;93.51
66119;DHT22;52912;48.564;9.302;2022-08-19T14:34:33;18.81;93.13
66119;DHT22;52912;48.564;9.302;2022-08-19T14:36:58;18.81;92.95
66119;DHT22;52912;48.564;9.302;2022-08-19T14:39:24;18.94;92.59
66119;DHT22;52912;48.564;9.302;2022-08-19T14:41:51;18.99;92.56
66119;DHT22;52912;48.564;9.302;2022-08-19T14:44:17;18.94;92.91
66119;DHT22;52912;48.564;9.302;2022-08-19T14:46:43;18.99;91.71
66119;DHT22;52912;48.564;9.302;2022-08-19T14:49:09;18.92;93.39
66119;DHT22;52912;48.564;9.302;2022-08-19T14:51:34;18.99;93.92
66119;DHT22;52912;48.564;9.302;2022-08-19T14:54:00;19.02;92.84
66119;DHT22;52912;48.564;9.302;2022-08-19T14:56:27;19.02;92.82
66119;DHT22;52912;48.564;9.302;2022-08-19T14:58:55;19.02;93.05
66119;DHT22;52912;48.564;9.302;2022-08-19T15:01:22;19.08;93.41
66119;DHT22;52912;48.564;9.302;2022-08-19T15:03:48;19.02;93.22
66119;DHT22;52912;48.564;9.302;2022-08-19T15:06:15;19.10;92.20
66119;DHT22;52912;48.564;9.302;2022-08-19T15:08:41;19.02;93.04
66119;DHT22;52912;48.564;9.302;2022-08-19T15:11:08;18.96;92.37
66119;DHT22;52912;48.564;9.302;2022-08-19T15:13:34;19.01;93.34
66119;DHT22;52912;48.564;9.302;2022-08-19T15:16:01;18.89;92.53
66119;DHT22;52912;48.564;9.302;2022-08-19T15:18:27;18.96;93.02
66119;DHT22;52912;48.564;9.302;2022-08-19T15:20:53;18.98;91.86
66119;DHT22;52912;48.564;9.302;2022-08-19T15:23:19;19.13;91.43
66119;DHT22;52912;48.564;9.302;2022-08-19T15:25:45;19.02;91.97
66119;DHT22;52912;48.564;9.302;2022-08-19T15:28:11;19.20;92.41